sensor_id;sensor_type;location;lat;lon;timestamp;P1;durP1;ratioP1;P2;durP2;ratioP2
15982;SDS011;14442;50.196;8.096;2023-01-05T00:00:07;2.30;;;0.50;;
15982;SDS011;14442;50.196;8.096;2023-01-05T00:02:34;0.97;;;0.40;;
15982;SDS011;14442;50.196;8.096;2023-01-05T00:05:01;1.70;;;0.40;;
15982;SDS011;14442;50.196;8.096;2023-01-05T00:07:28;2.20;;;0.40;;
15982;SDS011;14442;50.196;8.096;2023-01-05T00:09:54;0.30;;;0.30;;
15982;SDS011;14442;50.196;8.096;2023-01-05T00:12:21;0.73;;;0.30;;
15982;SDS011;14442;50.196;8.096;2023-01-05T00:15:07;1.33;;;0.40;;
15982;SDS011;14442;50.196;8.096;2023-01-05T00:17:52;1.80;;;0.30;;
15982;SDS011;14442;50.196;8.096;2023-01-05T00:20:36;0.40;;;0.27;;
15982;SDS011;14442;50.196;8.096;2023-01-05T00:23:21;1.40;;;0.40;;
15982;SDS011;14442;50.196;8.096;2023-01-05T00:25:48;1.17;;;0.30;;
15982;SDS011;14442;50.196;8.096;2023-01-05T00:28:14;1.77;;;0.50;;
15982;SDS011;14442;50.196;8.096;2023-01-05T00:30:43;0.90;;;0.40;;
15982;SDS011;14442;50.196;8.096;2023-01-05T00:33:12;1.03;;;0.30;;
15982;SDS011;14442;50.196;8.096;2023-01-05T00:35:40;0.30;;;0.20;;
15982;SDS011;14442;50.196;8.096;2023-01-05T00:38:07;0.47;;;0.20;;
15982;SDS011;14442;50.196;8.096;2023-01-05T00:40:34;1.40;;;0.40;;
15982;SDS011;14442;50.196;8.096;2023-01-05T00:43:01;0.33;;;0.10;;
15982;SDS011;14442;50.196;8.096;2023-01-05T00:45:28;0.30;;;0.20;;
15982;SDS011;14442;50.196;8.096;2023-01-05T00:47:56;0.23;;;0.20;;
15982;SDS011;14442;50.196;8.096;2023-01-05T00:50:23;0.20;;;0.20;;
15982;SDS011;14442;50.196;8.096;2023-01-05T00:52:49;1.43;;;0.20;;
15982;SDS011;14442;50.196;8.096;2023-01-05T00:55:16;0.73;;;0.20;;
15982;SDS011;14442;50.196;8.096;2023-01-05T00:57:43;0.70;;;0.20;;
15982;SDS011;14442;50.196;8.096;2023-01-05T01:00:11;0.40;;;0.20;;
15982;SDS011;14442;50.196;8.096;2023-01-05T01:02:40;0.70;;;0.20;;
15982;SDS011;14442;50.196;8.096;2023-01-05T01:05:08;2.47;;;0.20;;
15982;SDS011;14442;50.196;8.096;2023-01-05T01:07:35;1.63;;;0.20;;
15982;SDS011;14442;50.196;8.096;2023-01-05T01:10:02;0.20;;;0.10;;
15982;SDS011;14442;50.196;8.096;2023-01-05T01:12:29;0.40;;;0.20;;
15982;SDS011;14442;50.196;8.096;2023-01-05T01:14:56;1.30;;;0.10;;
15982;SDS011;14442;50.196;8.096;2023-01-05T01:17:23;0.67;;;0.20;;
15982;SDS011;14442;50.196;8.096;2023-01-05T01:19:49;0.70;;;0.20;;
15982;SDS011;14442;50.196;8.096;2023-01-05T01:22:17;0.20;;;0.20;;
15982;SDS011;14442;50.196;8.096;2023-01-05T01:24:44;0.67;;;0.30;;
15982;SDS011;14442;50.196;8.096;2023-01-05T01:27:11;2.33;;;0.30;;
15982;SDS011;14442;50.196;8.096;2023-01-05T01:29:37;0.77;;;0.30;;
15982;SDS011;14442;50.196;8.096;2023-01-05T01:32:04;3.00;;;0.30;;
15982;SDS011;14442;50.196;8.096;2023-01-05T01:34:31;0.20;;;0.10;;
15982;SDS011;14442;50.196;8.096;2023-01-05T01:36:58;1.07;;;0.20;;
15982;SDS011;14442;50.196;8.096;2023-01-05T01:39:26;0.20;;;0.20;;
15982;SDS011;14442;50.196;8.096;2023-01-05T01:41:52;0.53;;;0.17;;
15982;SDS011;14442;50.196;8.096;2023-01-05T01:47:17;0.33;;;0.10;;
15982;SDS011;14442;50.196;8.096;2023-01-05T01:49:52;0.23;;;0.10;;
15982;SDS011;14442;50.196;8.096;2023-01-05T01:52:20;0.27;;;0.17;;
15982;SDS011;14442;50.196;8.096;2023-01-05T01:54:51;0.50;;;0.20;;
15982;SDS011;14442;50.196;8.096;2023-01-05T01:57:18;0.30;;;0.20;;
15982;SDS011;14442;50.196;8.096;2023-01-05T01:59:46;0.47;;;0.20;;
15982;SDS011;14442;50.196;8.096;2023-01-05T02:02:13;0.60;;;0.20;;
15982;SDS011;14442;50.196;8.096;2023-01-05T02:04:40;0.43;;;0.23;;
15982;SDS011;14442;50.196;8.096;2023-01-05T02:07:08;1.23;;;0.33;;
15982;SDS011;14442;50.196;8.096;2023-01-05T02:09:40;0.27;;;0.20;;
15982;SDS011;14442;50.196;8.096;2023-01-05T02:12:12;0.50;;;0.30;;
15982;SDS011;14442;50.196;8.096;2023-01-05T02:14:52;2.03;;;0.37;;
15982;SDS011;14442;50.196;8.096;2023-01-05T02:17:30;0.80;;;0.20;;
15982;SDS011;14442;50.196;8.096;2023-01-05T02:20:11;1.70;;;0.30;;
15982;SDS011;14442;50.196;8.096;2023-01-05T02:23:24;1.23;;;0.30;;
15982;SDS011;14442;50.196;8.096;2023-01-05T02:26:28;0.80;;;0.27;;
15982;SDS011;14442;50.196;8.096;2023-01-05T02:29:14;0.80;;;0.30;;
15982;SDS011;14442;50.196;8.096;2023-01-05T02:32:03;0.77;;;0.40;;
15982;SDS011;14442;50.196;8.096;2023-01-05T02:34:35;1.30;;;0.30;;
15982;SDS011;14442;50.196;8.096;2023-01-05T02:37:09;0.40;;;0.20;;
15982;SDS011;14442;50.196;8.096;2023-01-05T02:39:45;1.77;;;0.50;;
15982;SDS011;14442;50.196;8.096;2023-01-05T02:42:18;0.87;;;0.30;;
15982;SDS011;14442;50.196;8.096;2023-01-05T02:44:48;0.43;;;0.17;;
15982;SDS011;14442;50.196;8.096;2023-01-05T02:50:14;1.00;;;0.40;;
15982;SDS011;14442;50.196;8.096;2023-01-05T02:52:46;0.83;;;0.50;;
15982;SDS011;14442;50.196;8.096;2023-01-05T02:55:19;0.63;;;0.30;;
15982;SDS011;14442;50.196;8.096;2023-01-05T02:57:50;1.17;;;0.30;;
15982;SDS011;14442;50.196;8.096;2023-01-05T03:00:21;1.13;;;0.40;;
15982;SDS011;14442;50.196;8.096;2023-01-05T03:02:54;0.43;;;0.20;;
15982;SDS011;14442;50.196;8.096;2023-01-05T03:05:26;0.97;;;0.37;;
15982;SDS011;14442;50.196;8.096;2023-01-05T03:07:57;0.93;;;0.37;;
15982;SDS011;14442;50.196;8.096;2023-01-05T03:10:30;0.90;;;0.40;;
15982;SDS011;14442;50.196;8.096;2023-01-05T03:13:18;1.00;;;0.30;;
15982;SDS011;14442;50.196;8.096;2023-01-05T03:16:04;1.57;;;0.30;;
15982;SDS011;14442;50.196;8.096;2023-01-05T03:18:34;0.97;;;0.40;;
15982;SDS011;14442;50.196;8.096;2023-01-05T03:21:22;0.83;;;0.30;;
15982;SDS011;14442;50.196;8.096;2023-01-05T03:23:51;0.50;;;0.20;;
15982;SDS011;14442;50.196;8.096;2023-01-05T03:26:36;1.57;;;0.47;;
15982;SDS011;14442;50.196;8.096;2023-01-05T03:29:22;1.00;;;0.30;;
15982;SDS011;14442;50.196;8.096;2023-01-05T03:32:06;0.77;;;0.30;;
15982;SDS011;14442;50.196;8.096;2023-01-05T03:34:59;0.40;;;0.33;;
15982;SDS011;14442;50.196;8.096;2023-01-05T03:37:50;2.37;;;0.40;;
15982;SDS011;14442;50.196;8.096;2023-01-05T03:40:24;0.40;;;0.30;;
15982;SDS011;14442;50.196;8.096;2023-01-05T03:42:53;0.83;;;0.30;;
15982;SDS011;14442;50.196;8.096;2023-01-05T03:45:20;1.27;;;0.50;;
15982;SDS011;14442;50.196;8.096;2023-01-05T03:47:48;0.40;;;0.30;;
15982;SDS011;14442;50.196;8.096;2023-01-05T03:50:17;0.87;;;0.60;;
15982;SDS011;14442;50.196;8.096;2023-01-05T03:52:43;1.07;;;0.77;;
15982;SDS011;14442;50.196;8.096;2023-01-05T03:55:10;0.70;;;0.23;;
15982;SDS011;14442;50.196;8.096;2023-01-05T03:57:37;0.10;;;0.10;;
15982;SDS011;14442;50.196;8.096;2023-01-05T04:00:04;0.30;;;0.30;;
15982;SDS011;14442;50.196;8.096;2023-01-05T04:02:31;1.33;;;0.40;;
15982;SDS011;14442;50.196;8.096;2023-01-05T04:04:58;1.40;;;0.47;;
15982;SDS011;14442;50.196;8.096;2023-01-05T04:07:26;0.77;;;0.30;;
15982;SDS011;14442;50.196;8.096;2023-01-05T04:09:52;0.97;;;0.50;;
15982;SDS011;14442;50.196;8.096;2023-01-05T04:12:19;0.70;;;0.40;;
15982;SDS011;14442;50.196;8.096;2023-01-05T04:14:46;0.93;;;0.43;;
15982;SDS011;14442;50.196;8.096;2023-01-05T04:17:12;0.57;;;0.20;;
15982;SDS011;14442;50.196;8.096;2023-01-05T04:19:39;0.97;;;0.40;;
15982;SDS011;14442;50.196;8.096;2023-01-05T04:22:05;1.23;;;0.30;;
15982;SDS011;14442;50.196;8.096;2023-01-05T04:24:33;0.90;;;0.37;;
15982;SDS011;14442;50.196;8.096;2023-01-05T04:27:00;0.63;;;0.23;;
15982;SDS011;14442;50.196;8.096;2023-01-05T04:29:27;0.53;;;0.30;;
15982;SDS011;14442;50.196;8.096;2023-01-05T04:31:53;1.67;;;0.73;;
15982;SDS011;14442;50.196;8.096;2023-01-05T04:34:20;0.80;;;0.40;;
15982;SDS011;14442;50.196;8.096;2023-01-05T04:36:47;1.37;;;0.50;;
15982;SDS011;14442;50.196;8.096;2023-01-05T04:39:13;0.37;;;0.30;;
15982;SDS011;14442;50.196;8.096;2023-01-05T04:41:42;0.20;;;0.20;;
15982;SDS011;14442;50.196;8.096;2023-01-05T04:44:09;0.30;;;0.23;;
15982;SDS011;14442;50.196;8.096;2023-01-05T04:46:35;0.77;;;0.37;;
15982;SDS011;14442;50.196;8.096;2023-01-05T04:49:02;0.73;;;0.40;;
15982;SDS011;14442;50.196;8.096;2023-01-05T04:51:29;0.87;;;0.50;;
15982;SDS011;14442;50.196;8.096;2023-01-05T04:53:55;0.77;;;0.30;;
15982;SDS011;14442;50.196;8.096;2023-01-05T04:56:22;1.57;;;0.50;;
15982;SDS011;14442;50.196;8.096;2023-01-05T04:58:50;1.17;;;0.50;;
15982;SDS011;14442;50.196;8.096;2023-01-05T05:01:17;1.13;;;0.40;;
15982;SDS011;14442;50.196;8.096;2023-01-05T05:03:44;0.67;;;0.30;;
15982;SDS011;14442;50.196;8.096;2023-01-05T05:06:10;1.17;;;0.40;;
15982;SDS011;14442;50.196;8.096;2023-01-05T05:08:37;0.77;;;0.40;;
15982;SDS011;14442;50.196;8.096;2023-01-05T05:11:04;1.13;;;0.40;;
15982;SDS011;14442;50.196;8.096;2023-01-05T05:13:30;1.00;;;0.57;;
15982;SDS011;14442;50.196;8.096;2023-01-05T05:15:58;1.60;;;0.50;;
15982;SDS011;14442;50.196;8.096;2023-01-05T05:18:25;0.97;;;0.40;;
15982;SDS011;14442;50.196;8.096;2023-01-05T05:20:52;0.90;;;0.50;;
15982;SDS011;14442;50.196;8.096;2023-01-05T05:23:19;1.90;;;0.50;;
15982;SDS011;14442;50.196;8.096;2023-01-05T05:25:48;1.73;;;0.70;;
15982;SDS011;14442;50.196;8.096;2023-01-05T05:28:16;1.00;;;0.60;;
15982;SDS011;14442;50.196;8.096;2023-01-05T05:30:44;1.40;;;0.50;;
15982;SDS011;14442;50.196;8.096;2023-01-05T05:33:12;1.17;;;0.40;;
15982;SDS011;14442;50.196;8.096;2023-01-05T05:35:38;0.40;;;0.30;;
15982;SDS011;14442;50.196;8.096;2023-01-05T05:38:05;0.80;;;0.40;;
15982;SDS011;14442;50.196;8.096;2023-01-05T05:40:32;0.70;;;0.43;;
15982;SDS011;14442;50.196;8.096;2023-01-05T05:42:58;0.73;;;0.40;;
15982;SDS011;14442;50.196;8.096;2023-01-05T05:45:25;0.43;;;0.40;;
15982;SDS011;14442;50.196;8.096;2023-01-05T05:47:51;1.20;;;0.50;;
15982;SDS011;14442;50.196;8.096;2023-01-05T05:50:19;1.13;;;0.37;;
15982;SDS011;14442;50.196;8.096;2023-01-05T05:52:46;1.00;;;0.60;;
15982;SDS011;14442;50.196;8.096;2023-01-05T05:55:13;1.13;;;0.53;;
15982;SDS011;14442;50.196;8.096;2023-01-05T05:57:40;1.43;;;0.60;;
15982;SDS011;14442;50.196;8.096;2023-01-05T06:00:07;1.17;;;0.47;;
15982;SDS011;14442;50.196;8.096;2023-01-05T06:02:34;0.80;;;0.27;;
15982;SDS011;14442;50.196;8.096;2023-01-05T06:05:01;1.27;;;0.60;;
15982;SDS011;14442;50.196;8.096;2023-01-05T06:07:29;1.23;;;0.60;;
15982;SDS011;14442;50.196;8.096;2023-01-05T06:09:55;1.33;;;0.70;;
15982;SDS011;14442;50.196;8.096;2023-01-05T06:12:22;0.50;;;0.30;;
15982;SDS011;14442;50.196;8.096;2023-01-05T06:14:49;0.80;;;0.40;;
15982;SDS011;14442;50.196;8.096;2023-01-05T06:17:15;0.93;;;0.43;;
15982;SDS011;14442;50.196;8.096;2023-01-05T06:19:42;1.50;;;0.50;;
15982;SDS011;14442;50.196;8.096;2023-01-05T06:22:09;0.40;;;0.40;;
15982;SDS011;14442;50.196;8.096;2023-01-05T06:24:37;1.77;;;0.50;;
15982;SDS011;14442;50.196;8.096;2023-01-05T06:27:03;0.80;;;0.40;;
15982;SDS011;14442;50.196;8.096;2023-01-05T06:29:30;2.73;;;0.47;;
15982;SDS011;14442;50.196;8.096;2023-01-05T06:31:57;0.97;;;0.47;;
15982;SDS011;14442;50.196;8.096;2023-01-05T06:34:23;0.67;;;0.50;;
15982;SDS011;14442;50.196;8.096;2023-01-05T06:36:50;0.73;;;0.50;;
15982;SDS011;14442;50.196;8.096;2023-01-05T06:39:17;0.83;;;0.37;;
15982;SDS011;14442;50.196;8.096;2023-01-05T06:41:45;1.07;;;0.53;;
15982;SDS011;14442;50.196;8.096;2023-01-05T06:44:12;0.97;;;0.60;;
15982;SDS011;14442;50.196;8.096;2023-01-05T06:46:39;1.30;;;0.60;;
15982;SDS011;14442;50.196;8.096;2023-01-05T06:49:05;0.73;;;0.53;;
15982;SDS011;14442;50.196;8.096;2023-01-05T06:51:35;2.00;;;0.50;;
15982;SDS011;14442;50.196;8.096;2023-01-05T06:54:01;2.13;;;0.50;;
15982;SDS011;14442;50.196;8.096;2023-01-05T06:56:28;0.70;;;0.43;;
15982;SDS011;14442;50.196;8.096;2023-01-05T06:58:56;0.70;;;0.43;;
15982;SDS011;14442;50.196;8.096;2023-01-05T07:01:23;1.80;;;0.50;;
15982;SDS011;14442;50.196;8.096;2023-01-05T07:03:49;1.47;;;0.50;;
15982;SDS011;14442;50.196;8.096;2023-01-05T07:06:16;1.03;;;0.50;;
15982;SDS011;14442;50.196;8.096;2023-01-05T07:08:43;1.63;;;0.50;;
15982;SDS011;14442;50.196;8.096;2023-01-05T07:11:09;0.80;;;0.33;;
15982;SDS011;14442;50.196;8.096;2023-01-05T07:13:37;1.37;;;0.50;;
15982;SDS011;14442;50.196;8.096;2023-01-05T07:16:06;0.93;;;0.40;;
15982;SDS011;14442;50.196;8.096;2023-01-05T07:18:32;4.37;;;0.60;;
15982;SDS011;14442;50.196;8.096;2023-01-05T07:20:59;5.30;;;0.60;;
15982;SDS011;14442;50.196;8.096;2023-01-05T07:23:26;1.87;;;0.50;;
15982;SDS011;14442;50.196;8.096;2023-01-05T07:25:53;3.77;;;0.60;;
15982;SDS011;14442;50.196;8.096;2023-01-05T07:28:20;10.17;;;0.70;;
15982;SDS011;14442;50.196;8.096;2023-01-05T07:30:49;4.03;;;0.80;;
15982;SDS011;14442;50.196;8.096;2023-01-05T07:33:18;4.63;;;0.50;;
15982;SDS011;14442;50.196;8.096;2023-01-05T07:35:45;3.50;;;0.70;;
15982;SDS011;14442;50.196;8.096;2023-01-05T07:38:11;3.73;;;0.70;;
15982;SDS011;14442;50.196;8.096;2023-01-05T07:40:38;3.10;;;0.53;;
15982;SDS011;14442;50.196;8.096;2023-01-05T07:43:05;3.87;;;0.67;;
15982;SDS011;14442;50.196;8.096;2023-01-05T07:45:31;4.13;;;0.60;;
15982;SDS011;14442;50.196;8.096;2023-01-05T07:47:58;3.13;;;0.70;;
15982;SDS011;14442;50.196;8.096;2023-01-05T07:50:26;2.23;;;0.70;;
15982;SDS011;14442;50.196;8.096;2023-01-05T07:52:53;5.00;;;0.70;;
15982;SDS011;14442;50.196;8.096;2023-01-05T07:55:19;3.77;;;0.60;;
15982;SDS011;14442;50.196;8.096;2023-01-05T07:57:46;3.70;;;0.77;;
15982;SDS011;14442;50.196;8.096;2023-01-05T08:00:13;3.00;;;1.00;;
15982;SDS011;14442;50.196;8.096;2023-01-05T08:02:40;3.80;;;0.80;;
15982;SDS011;14442;50.196;8.096;2023-01-05T08:05:08;2.00;;;0.70;;
15982;SDS011;14442;50.196;8.096;2023-01-05T08:07:36;1.43;;;0.50;;
15982;SDS011;14442;50.196;8.096;2023-01-05T08:10:03;3.40;;;0.50;;
15982;SDS011;14442;50.196;8.096;2023-01-05T08:12:48;3.90;;;0.87;;
15982;SDS011;14442;50.196;8.096;2023-01-05T08:15:32;4.20;;;0.70;;
15982;SDS011;14442;50.196;8.096;2023-01-05T08:17:59;2.87;;;0.77;;
15982;SDS011;14442;50.196;8.096;2023-01-05T08:20:26;1.53;;;0.53;;
15982;SDS011;14442;50.196;8.096;2023-01-05T08:22:53;4.97;;;0.90;;
15982;SDS011;14442;50.196;8.096;2023-01-05T08:25:20;4.97;;;1.00;;
15982;SDS011;14442;50.196;8.096;2023-01-05T08:27:47;7.90;;;1.10;;
15982;SDS011;14442;50.196;8.096;2023-01-05T08:30:14;3.93;;;0.60;;
15982;SDS011;14442;50.196;8.096;2023-01-05T08:32:41;2.97;;;0.80;;
15982;SDS011;14442;50.196;8.096;2023-01-05T08:35:08;2.90;;;0.70;;
15982;SDS011;14442;50.196;8.096;2023-01-05T08:37:35;3.80;;;1.07;;
15982;SDS011;14442;50.196;8.096;2023-01-05T08:40:03;5.83;;;1.00;;
15982;SDS011;14442;50.196;8.096;2023-01-05T08:42:30;3.30;;;0.80;;
15982;SDS011;14442;50.196;8.096;2023-01-05T08:44:57;5.53;;;0.73;;
15982;SDS011;14442;50.196;8.096;2023-01-05T08:47:24;9.33;;;0.77;;
15982;SDS011;14442;50.196;8.096;2023-01-05T08:49:50;3.77;;;0.93;;
15982;SDS011;14442;50.196;8.096;2023-01-05T08:52:17;6.83;;;1.27;;
15982;SDS011;14442;50.196;8.096;2023-01-05T08:54:43;18.83;;;1.60;;
15982;SDS011;14442;50.196;8.096;2023-01-05T08:57:11;6.73;;;0.90;;
15982;SDS011;14442;50.196;8.096;2023-01-05T08:59:38;13.40;;;1.10;;
15982;SDS011;14442;50.196;8.096;2023-01-05T09:02:05;10.33;;;1.30;;
15982;SDS011;14442;50.196;8.096;2023-01-05T09:04:35;5.30;;;1.10;;
15982;SDS011;14442;50.196;8.096;2023-01-05T09:07:01;6.20;;;1.13;;
15982;SDS011;14442;50.196;8.096;2023-01-05T09:09:28;6.50;;;0.80;;
15982;SDS011;14442;50.196;8.096;2023-01-05T09:11:55;11.20;;;1.13;;
15982;SDS011;14442;50.196;8.096;2023-01-05T09:14:23;11.40;;;0.93;;
15982;SDS011;14442;50.196;8.096;2023-01-05T09:16:49;4.70;;;1.13;;
15982;SDS011;14442;50.196;8.096;2023-01-05T09:19:16;8.47;;;1.10;;
15982;SDS011;14442;50.196;8.096;2023-01-05T09:21:43;4.17;;;0.87;;
15982;SDS011;14442;50.196;8.096;2023-01-05T09:24:10;11.23;;;1.03;;
15982;SDS011;14442;50.196;8.096;2023-01-05T09:26:37;3.37;;;0.77;;
15982;SDS011;14442;50.196;8.096;2023-01-05T09:29:03;10.70;;;1.47;;
15982;SDS011;14442;50.196;8.096;2023-01-05T09:31:31;8.60;;;1.50;;
15982;SDS011;14442;50.196;8.096;2023-01-05T09:33:58;7.77;;;1.30;;
15982;SDS011;14442;50.196;8.096;2023-01-05T09:36:25;4.90;;;1.00;;
15982;SDS011;14442;50.196;8.096;2023-01-05T09:38:52;4.77;;;0.73;;
15982;SDS011;14442;50.196;8.096;2023-01-05T09:41:21;5.23;;;1.20;;
15982;SDS011;14442;50.196;8.096;2023-01-05T09:43:51;3.03;;;0.90;;
15982;SDS011;14442;50.196;8.096;2023-01-05T09:46:20;7.60;;;0.90;;
15982;SDS011;14442;50.196;8.096;2023-01-05T09:48:54;3.27;;;1.00;;
15982;SDS011;14442;50.196;8.096;2023-01-05T09:51:23;6.13;;;1.10;;
15982;SDS011;14442;50.196;8.096;2023-01-05T09:53:51;6.30;;;0.80;;
15982;SDS011;14442;50.196;8.096;2023-01-05T09:56:21;2.27;;;0.80;;
15982;SDS011;14442;50.196;8.096;2023-01-05T09:58:52;5.00;;;0.90;;
15982;SDS011;14442;50.196;8.096;2023-01-05T10:01:26;6.53;;;0.87;;
15982;SDS011;14442;50.196;8.096;2023-01-05T10:03:56;6.33;;;1.13;;
15982;SDS011;14442;50.196;8.096;2023-01-05T10:06:28;2.40;;;0.50;;
15982;SDS011;14442;50.196;8.096;2023-01-05T10:08:58;4.27;;;0.80;;
15982;SDS011;14442;50.196;8.096;2023-01-05T10:11:29;4.83;;;1.13;;
15982;SDS011;14442;50.196;8.096;2023-01-05T10:14:21;4.23;;;0.80;;
15982;SDS011;14442;50.196;8.096;2023-01-05T10:16:51;6.60;;;1.10;;
15982;SDS011;14442;50.196;8.096;2023-01-05T10:19:19;3.90;;;0.87;;
15982;SDS011;14442;50.196;8.096;2023-01-05T10:21:48;3.17;;;0.87;;
15982;SDS011;14442;50.196;8.096;2023-01-05T10:24:23;4.20;;;0.80;;
15982;SDS011;14442;50.196;8.096;2023-01-05T10:26:59;1.83;;;0.63;;
15982;SDS011;14442;50.196;8.096;2023-01-05T10:29:33;6.60;;;1.10;;
15982;SDS011;14442;50.196;8.096;2023-01-05T10:32:08;5.27;;;1.20;;
15982;SDS011;14442;50.196;8.096;2023-01-05T10:34:51;4.63;;;1.00;;
15982;SDS011;14442;50.196;8.096;2023-01-05T10:37:40;4.60;;;0.90;;
15982;SDS011;14442;50.196;8.096;2023-01-05T10:40:19;2.67;;;0.90;;
15982;SDS011;14442;50.196;8.096;2023-01-05T10:43:03;4.57;;;0.93;;
15982;SDS011;14442;50.196;8.096;2023-01-05T10:45:45;1.60;;;0.70;;
15982;SDS011;14442;50.196;8.096;2023-01-05T10:48:12;1.50;;;0.60;;
15982;SDS011;14442;50.196;8.096;2023-01-05T10:50:43;5.60;;;0.50;;
15982;SDS011;14442;50.196;8.096;2023-01-05T10:53:12;4.43;;;0.83;;
15982;SDS011;14442;50.196;8.096;2023-01-05T10:55:47;2.30;;;0.60;;
15982;SDS011;14442;50.196;8.096;2023-01-05T10:58:22;4.33;;;0.77;;
15982;SDS011;14442;50.196;8.096;2023-01-05T11:00:50;3.80;;;0.70;;
15982;SDS011;14442;50.196;8.096;2023-01-05T11:03:20;1.27;;;0.60;;
15982;SDS011;14442;50.196;8.096;2023-01-05T11:05:54;1.77;;;0.60;;
15982;SDS011;14442;50.196;8.096;2023-01-05T11:08:22;2.00;;;0.70;;
15982;SDS011;14442;50.196;8.096;2023-01-05T11:10:54;3.80;;;1.03;;
15982;SDS011;14442;50.196;8.096;2023-01-05T11:13:26;2.93;;;0.80;;
15982;SDS011;14442;50.196;8.096;2023-01-05T11:15:58;1.73;;;0.57;;
15982;SDS011;14442;50.196;8.096;2023-01-05T11:18:29;1.63;;;0.70;;
15982;SDS011;14442;50.196;8.096;2023-01-05T11:21:04;4.13;;;0.97;;
15982;SDS011;14442;50.196;8.096;2023-01-05T11:23:33;4.80;;;0.90;;
15982;SDS011;14442;50.196;8.096;2023-01-05T11:26:09;5.23;;;1.10;;
15982;SDS011;14442;50.196;8.096;2023-01-05T11:29:01;3.63;;;1.40;;
15982;SDS011;14442;50.196;8.096;2023-01-05T11:31:39;5.03;;;1.03;;
15982;SDS011;14442;50.196;8.096;2023-01-05T11:34:13;8.67;;;1.00;;
15982;SDS011;14442;50.196;8.096;2023-01-05T11:36:51;4.63;;;1.00;;
15982;SDS011;14442;50.196;8.096;2023-01-05T11:39:23;7.23;;;0.93;;
15982;SDS011;14442;50.196;8.096;2023-01-05T11:42:03;11.13;;;1.57;;
15982;SDS011;14442;50.196;8.096;2023-01-05T11:44:32;7.30;;;1.43;;
15982;SDS011;14442;50.196;8.096;2023-01-05T11:47:00;9.17;;;1.50;;
15982;SDS011;14442;50.196;8.096;2023-01-05T11:49:29;9.83;;;1.60;;
15982;SDS011;14442;50.196;8.096;2023-01-05T11:51:57;4.63;;;1.53;;
15982;SDS011;14442;50.196;8.096;2023-01-05T11:54:31;7.27;;;1.30;;
15982;SDS011;14442;50.196;8.096;2023-01-05T11:59:42;6.10;;;1.43;;
15982;SDS011;14442;50.196;8.096;2023-01-05T12:02:16;4.60;;;1.20;;
15982;SDS011;14442;50.196;8.096;2023-01-05T12:05:03;6.27;;;1.70;;
15982;SDS011;14442;50.196;8.096;2023-01-05T12:07:44;7.10;;;1.70;;
15982;SDS011;14442;50.196;8.096;2023-01-05T12:10:24;4.13;;;1.37;;
15982;SDS011;14442;50.196;8.096;2023-01-05T12:13:02;7.00;;;1.37;;
15982;SDS011;14442;50.196;8.096;2023-01-05T12:15:43;7.77;;;1.30;;
15982;SDS011;14442;50.196;8.096;2023-01-05T12:18:23;8.27;;;1.73;;
15982;SDS011;14442;50.196;8.096;2023-01-05T12:21:06;4.17;;;1.47;;
15982;SDS011;14442;50.196;8.096;2023-01-05T12:23:43;5.43;;;1.27;;
15982;SDS011;14442;50.196;8.096;2023-01-05T12:26:24;5.60;;;1.83;;
15982;SDS011;14442;50.196;8.096;2023-01-05T12:29:02;8.30;;;1.40;;
15982;SDS011;14442;50.196;8.096;2023-01-05T12:31:44;10.30;;;1.70;;
15982;SDS011;14442;50.196;8.096;2023-01-05T12:34:35;6.87;;;1.33;;
15982;SDS011;14442;50.196;8.096;2023-01-05T12:37:14;4.57;;;1.50;;
15982;SDS011;14442;50.196;8.096;2023-01-05T12:39:58;7.67;;;1.67;;
15982;SDS011;14442;50.196;8.096;2023-01-05T12:42:43;10.97;;;1.97;;
15982;SDS011;14442;50.196;8.096;2023-01-05T12:48:38;7.13;;;2.07;;
15982;SDS011;14442;50.196;8.096;2023-01-05T12:51:11;12.87;;;2.20;;
15982;SDS011;14442;50.196;8.096;2023-01-05T12:53:46;11.60;;;2.67;;
15982;SDS011;14442;50.196;8.096;2023-01-05T12:56:19;14.30;;;2.37;;
15982;SDS011;14442;50.196;8.096;2023-01-05T12:58:54;17.80;;;2.73;;
15982;SDS011;14442;50.196;8.096;2023-01-05T13:01:28;9.67;;;2.43;;
15982;SDS011;14442;50.196;8.096;2023-01-05T13:03:59;9.10;;;2.20;;
15982;SDS011;14442;50.196;8.096;2023-01-05T13:06:32;13.03;;;2.90;;
15982;SDS011;14442;50.196;8.096;2023-01-05T13:09:05;7.00;;;1.90;;
15982;SDS011;14442;50.196;8.096;2023-01-05T13:11:41;9.97;;;1.77;;
15982;SDS011;14442;50.196;8.096;2023-01-05T13:14:13;8.60;;;2.03;;
15982;SDS011;14442;50.196;8.096;2023-01-05T13:16:44;9.50;;;2.03;;
15982;SDS011;14442;50.196;8.096;2023-01-05T13:19:15;7.23;;;1.83;;
15982;SDS011;14442;50.196;8.096;2023-01-05T13:21:45;6.93;;;1.90;;
15982;SDS011;14442;50.196;8.096;2023-01-05T13:24:14;12.13;;;2.47;;
15982;SDS011;14442;50.196;8.096;2023-01-05T13:26:48;9.53;;;1.90;;
15982;SDS011;14442;50.196;8.096;2023-01-05T13:29:15;11.40;;;2.43;;
15982;SDS011;14442;50.196;8.096;2023-01-05T13:31:56;10.33;;;1.97;;
15982;SDS011;14442;50.196;8.096;2023-01-05T13:34:42;11.20;;;2.13;;
15982;SDS011;14442;50.196;8.096;2023-01-05T13:37:28;10.90;;;1.83;;
15982;SDS011;14442;50.196;8.096;2023-01-05T13:40:15;13.17;;;2.10;;
15982;SDS011;14442;50.196;8.096;2023-01-05T13:43:04;7.00;;;1.83;;
15982;SDS011;14442;50.196;8.096;2023-01-05T13:45:52;8.07;;;1.90;;
15982;SDS011;14442;50.196;8.096;2023-01-05T13:48:43;9.97;;;1.90;;
15982;SDS011;14442;50.196;8.096;2023-01-05T13:51:27;4.23;;;1.63;;
15982;SDS011;14442;50.196;8.096;2023-01-05T13:54:12;6.50;;;1.50;;
15982;SDS011;14442;50.196;8.096;2023-01-05T13:56:43;6.27;;;1.57;;
15982;SDS011;14442;50.196;8.096;2023-01-05T13:59:15;5.67;;;1.80;;
15982;SDS011;14442;50.196;8.096;2023-01-05T14:01:50;4.83;;;1.90;;
15982;SDS011;14442;50.196;8.096;2023-01-05T14:04:20;5.73;;;1.60;;
15982;SDS011;14442;50.196;8.096;2023-01-05T14:06:49;6.50;;;1.73;;
15982;SDS011;14442;50.196;8.096;2023-01-05T14:09:20;7.10;;;2.13;;
15982;SDS011;14442;50.196;8.096;2023-01-05T14:14:58;4.00;;;1.40;;
15982;SDS011;14442;50.196;8.096;2023-01-05T14:20:29;7.50;;;2.03;;
15982;SDS011;14442;50.196;8.096;2023-01-05T14:23:01;9.80;;;2.23;;
15982;SDS011;14442;50.196;8.096;2023-01-05T14:34:14;15.20;;;2.50;;
15982;SDS011;14442;50.196;8.096;2023-01-05T14:36:44;10.70;;;2.63;;
15982;SDS011;14442;50.196;8.096;2023-01-05T14:39:21;8.77;;;2.13;;
15982;SDS011;14442;50.196;8.096;2023-01-05T14:41:57;4.57;;;1.33;;
15982;SDS011;14442;50.196;8.096;2023-01-05T14:44:27;5.37;;;1.90;;
15982;SDS011;14442;50.196;8.096;2023-01-05T14:46:58;5.20;;;1.50;;
15982;SDS011;14442;50.196;8.096;2023-01-05T14:49:26;7.43;;;1.67;;
15982;SDS011;14442;50.196;8.096;2023-01-05T14:51:57;10.37;;;1.67;;
15982;SDS011;14442;50.196;8.096;2023-01-05T14:57:38;7.67;;;1.77;;
15982;SDS011;14442;50.196;8.096;2023-01-05T15:00:14;4.87;;;1.13;;
15982;SDS011;14442;50.196;8.096;2023-01-05T15:02:49;12.43;;;1.70;;
15982;SDS011;14442;50.196;8.096;2023-01-05T15:05:20;6.97;;;1.70;;
15982;SDS011;14442;50.196;8.096;2023-01-05T15:07:51;6.13;;;1.63;;
15982;SDS011;14442;50.196;8.096;2023-01-05T15:10:43;8.07;;;1.83;;
15982;SDS011;14442;50.196;8.096;2023-01-05T15:13:25;5.77;;;1.90;;
15982;SDS011;14442;50.196;8.096;2023-01-05T15:16:36;5.00;;;1.30;;
15982;SDS011;14442;50.196;8.096;2023-01-05T15:19:25;7.43;;;1.57;;
15982;SDS011;14442;50.196;8.096;2023-01-05T15:22:08;4.63;;;1.37;;
15982;SDS011;14442;50.196;8.096;2023-01-05T15:24:53;4.23;;;1.43;;
15982;SDS011;14442;50.196;8.096;2023-01-05T15:27:41;5.97;;;1.43;;
15982;SDS011;14442;50.196;8.096;2023-01-05T15:30:27;6.17;;;1.40;;
15982;SDS011;14442;50.196;8.096;2023-01-05T15:33:08;5.80;;;1.83;;
15982;SDS011;14442;50.196;8.096;2023-01-05T15:35:42;4.00;;;1.40;;
15982;SDS011;14442;50.196;8.096;2023-01-05T15:38:19;4.63;;;1.63;;
15982;SDS011;14442;50.196;8.096;2023-01-05T15:40:49;4.63;;;1.60;;